createdAt,value
2022-09-16T00:02:40.104Z,100667.66
2022-09-16T00:05:31.878Z,100662.75
2022-09-16T00:08:24.166Z,100679.94
2022-09-16T00:11:15.629Z,100683.28
2022-09-16T00:14:06.730Z,100688.47
2022-09-16T00:16:57.247Z,100688.09
2022-09-16T00:19:48.558Z,100690.03
2022-09-16T00:22:39.288Z,100695.63
2022-09-16T00:25:30.038Z,100695.72
2022-09-16T00:28:23.921Z,100689.19
2022-09-16T00:31:14.692Z,100695.16
2022-09-16T00:34:05.266Z,100689.84
2022-09-16T00:36:56.183Z,100681.94
2022-09-16T00:39:46.794Z,100683.22
2022-09-16T00:42:42.323Z,100681.19
2022-09-16T00:45:33.550Z,100682.00
2022-09-16T00:48:25.760Z,100682.47
2022-09-16T00:51:17.591Z,100679.66
2022-09-16T00:54:11.196Z,100679.16
2022-09-16T00:57:05.603Z,100668.63
2022-09-16T00:59:57.804Z,100677.53
2022-09-16T01:02:50.179Z,100668.63
2022-09-16T01:05:41.400Z,100669.66
2022-09-16T01:08:32.227Z,100677.38
2022-09-16T01:11:23.035Z,100668.88
2022-09-16T01:14:35.586Z,100677.16
2022-09-16T01:17:38.367Z,100677.25
2022-09-16T01:20:34.675Z,100678.56
2022-09-16T01:24:09.366Z,100670.97
2022-09-16T01:27:34.343Z,100657.50
2022-09-16T01:30:46.713Z,100659.38
2022-09-16T01:33:44.573Z,100653.38
2022-09-16T01:36:38.409Z,100637.84
2022-09-16T01:39:50.565Z,100647.88
2022-09-16T01:43:13.073Z,100645.56
2022-09-16T01:46:27.516Z,100643.22
2022-09-16T01:49:25.163Z,100636.00
2022-09-16T01:52:39.925Z,100633.47
2022-09-16T01:55:58.920Z,100638.72
2022-09-16T01:59:29.054Z,100637.03
2022-09-16T02:02:23.576Z,100637.91
2022-09-16T02:05:19.459Z,100637.25
2022-09-16T02:08:17.592Z,100642.25
2022-09-16T02:11:11.213Z,100645.00
2022-09-16T02:14:11.592Z,100641.91
2022-09-16T02:17:17.814Z,100648.97
2022-09-16T02:20:21.500Z,100641.50
2022-09-16T02:23:18.822Z,100646.09
2022-09-16T02:26:12.066Z,100634.41
2022-09-16T02:29:06.232Z,100637.59
2022-09-16T02:32:00.091Z,100639.50
2022-09-16T02:34:53.727Z,100628.28
2022-09-16T02:37:50.756Z,100627.94
2022-09-16T02:40:49.403Z,100637.13
2022-09-16T02:43:41.453Z,100628.59
2022-09-16T02:47:06.084Z,100627.81
2022-09-16T02:50:04.139Z,100635.91
2022-09-16T02:53:25.717Z,100618.88
2022-09-16T02:56:32.209Z,100622.44
2022-09-16T02:59:23.893Z,100624.94
2022-09-16T03:02:14.900Z,100618.50
2022-09-16T03:05:06.874Z,100614.31
2022-09-16T03:07:57.348Z,100615.63
2022-09-16T03:10:50.149Z,100600.66
2022-09-16T03:13:51.847Z,100608.53
2022-09-16T03:16:56.236Z,100601.88
2022-09-16T03:20:08.032Z,100598.09
2022-09-16T03:23:09.639Z,100596.06
2022-09-16T03:26:29.055Z,100590.00
2022-09-16T03:29:25.782Z,100590.66
2022-09-16T03:32:51.570Z,100593.16
2022-09-16T03:35:48.430Z,100579.44
2022-09-16T03:38:40.134Z,100576.50
2022-09-16T03:41:35.467Z,100585.06
2022-09-16T03:44:39.004Z,100570.28
2022-09-16T03:47:31.099Z,100551.31
2022-09-16T03:50:22.122Z,100550.91
2022-09-16T03:53:12.483Z,100545.28
2022-09-16T03:56:02.458Z,100540.69
2022-09-16T03:58:53.575Z,100532.38
2022-09-16T04:01:44.538Z,100528.41
2022-09-16T04:04:37.182Z,100523.59
2022-09-16T04:07:28.221Z,100515.66
2022-09-16T04:10:19.995Z,100517.75
2022-09-16T04:13:11.315Z,100510.66
2022-09-16T04:16:03.919Z,100512.31
2022-09-16T04:18:55.169Z,100512.31
2022-09-16T04:21:46.926Z,100508.16
2022-09-16T04:24:39.051Z,100490.03
2022-09-16T04:27:30.358Z,100492.31
2022-09-16T04:30:21.898Z,100483.94
2022-09-16T04:33:12.091Z,100485.78
2022-09-16T04:36:19.363Z,100477.22
2022-09-16T04:39:12.728Z,100458.44
2022-09-16T04:42:07.035Z,100459.75
2022-09-16T04:44:57.957Z,100463.94
2022-09-16T04:47:48.533Z,100463.06
2022-09-16T04:50:41.029Z,100457.63
2022-09-16T04:56:36.804Z,100452.38
2022-09-16T04:59:28.305Z,100452.56
2022-09-16T05:02:18.935Z,100453.84
2022-09-16T05:05:14.752Z,100455.97
2022-09-16T05:08:05.606Z,100447.56
2022-09-16T05:10:56.114Z,100443.81
2022-09-16T05:13:48.438Z,100447.13
2022-09-16T05:16:39.128Z,100435.31
2022-09-16T05:19:30.451Z,100443.69
2022-09-16T05:22:21.530Z,100436.53
2022-09-16T05:25:12.398Z,100439.03
2022-09-16T05:28:05.130Z,100437.38
2022-09-16T05:30:56.643Z,100432.75
2022-09-16T05:33:49.334Z,100420.06
2022-09-16T05:36:40.761Z,100417.03
2022-09-16T05:39:31.937Z,100414.50
2022-09-16T05:42:22.129Z,100407.28
2022-09-16T05:45:12.969Z,100410.44
2022-09-16T05:48:03.074Z,100413.00
2022-09-16T05:51:07.861Z,100400.66
2022-09-16T05:54:00.667Z,100394.44
2022-09-16T05:56:52.157Z,100390.81
2022-09-16T05:59:44.529Z,100403.84
2022-09-16T06:02:35.438Z,100391.50
2022-09-16T06:05:25.626Z,100383.47
2022-09-16T06:08:17.356Z,100373.69
2022-09-16T06:11:11.990Z,100370.22
2022-09-16T06:14:07.484Z,100368.53
2022-09-16T06:16:58.232Z,100364.66
2022-09-16T06:19:51.371Z,100365.22
2022-09-16T06:22:42.445Z,100357.06
2022-09-16T06:25:34.364Z,100354.94
2022-09-16T06:28:24.574Z,100350.91
2022-09-16T06:31:27.290Z,100352.41
2022-09-16T06:34:20.351Z,100349.19
2022-09-16T06:37:14.114Z,100343.63
2022-09-16T06:40:06.266Z,100343.00
2022-09-16T06:43:00.305Z,100346.81
2022-09-16T06:45:53.744Z,100353.94
2022-09-16T06:48:46.991Z,100363.13
2022-09-16T06:51:37.436Z,100363.38
2022-09-16T06:54:28.868Z,100353.56
2022-09-16T06:57:28.395Z,100360.66
2022-09-16T07:00:20.021Z,100356.53
2022-09-16T07:03:10.622Z,100358.31
2022-09-16T07:06:03.427Z,100367.94
2022-09-16T07:09:00.610Z,100369.91
2022-09-16T07:11:51.300Z,100371.94
2022-09-16T07:14:41.753Z,100379.91
2022-09-16T07:17:32.340Z,100369.31
2022-09-16T07:20:23.998Z,100374.47
2022-09-16T07:23:15.464Z,100371.56
2022-09-16T07:26:07.414Z,100359.22
2022-09-16T07:29:02.235Z,100366.16
2022-09-16T07:31:53.300Z,100372.00
2022-09-16T07:34:43.170Z,100371.66
2022-09-16T07:37:34.043Z,100365.41
2022-09-16T07:40:29.626Z,100359.97
2022-09-16T07:43:19.998Z,100362.06
2022-09-16T07:46:13.697Z,100364.84
2022-09-16T07:49:06.586Z,100372.13
2022-09-16T07:51:59.818Z,100371.50
2022-09-16T07:54:53.139Z,100382.19
2022-09-16T07:57:46.618Z,100378.22
2022-09-16T08:00:36.648Z,100380.53
2022-09-16T08:03:32.239Z,100382.41
2022-09-16T08:06:32.266Z,100383.69
2022-09-16T08:09:38.724Z,100377.47
2022-09-16T08:12:37.514Z,100379.38
2022-09-16T08:15:28.565Z,100384.78
2022-09-16T08:18:18.956Z,100385.59
2022-09-16T08:21:11.741Z,100381.91
2022-09-16T08:24:02.981Z,100382.31
2022-09-16T08:26:57.803Z,100384.22
2022-09-16T08:29:48.527Z,100375.69
2022-09-16T08:32:38.682Z,100378.44
2022-09-16T08:35:34.197Z,100389.84
2022-09-16T08:38:25.741Z,100387.38
2022-09-16T08:41:17.899Z,100387.56
2022-09-16T08:44:44.949Z,100388.63
2022-09-16T08:47:35.841Z,100400.72
2022-09-16T08:50:37.341Z,100402.44
2022-09-16T08:53:44.449Z,100410.75
2022-09-16T08:56:39.461Z,100417.81
2022-09-16T08:59:46.923Z,100421.56
2022-09-16T09:02:51.199Z,100420.34
2022-09-16T09:05:59.860Z,100425.94
2022-09-16T09:09:30.795Z,100434.06
2022-09-16T09:12:21.693Z,100438.66
2022-09-16T09:15:36.897Z,100436.56
2022-09-16T09:18:45.071Z,100441.16
2022-09-16T09:21:57.152Z,100445.75
2022-09-16T09:24:57.701Z,100449.53
2022-09-16T09:28:03.618Z,100455.75
2022-09-16T09:34:38.351Z,100473.66
2022-09-16T09:37:51.401Z,100478.25
2022-09-16T09:41:13.553Z,100479.28
2022-09-16T09:44:32.357Z,100473.25
2022-09-16T09:47:43.209Z,100466.97
2022-09-16T09:50:48.666Z,100472.81
2022-09-16T09:53:45.519Z,100475.72
2022-09-16T09:56:39.939Z,100475.72
2022-09-16T09:59:34.144Z,100475.28
2022-09-16T10:02:26.238Z,100481.13
2022-09-16T10:05:37.608Z,100494.63
2022-09-16T10:08:45.216Z,100500.47
2022-09-16T10:11:38.441Z,100504.00
2022-09-16T10:14:28.983Z,100513.13
2022-09-16T10:17:20.468Z,100515.22
2022-09-16T10:20:32.438Z,100517.09
2022-09-16T10:23:29.640Z,100518.88
2022-09-16T10:26:26.168Z,100519.09
2022-09-16T10:29:26.936Z,100521.19
2022-09-16T10:32:25.725Z,100523.88
2022-09-16T10:35:26.228Z,100539.69
2022-09-16T10:38:20.385Z,100531.38
2022-09-16T10:44:34.773Z,100542.63
2022-09-16T10:47:33.512Z,100538.88
2022-09-16T10:50:27.817Z,100541.78
2022-09-16T10:53:30.401Z,100555.91
2022-09-16T10:56:24.826Z,100548.63
2022-09-16T10:59:17.071Z,100566.34
2022-09-16T11:02:34.565Z,100564.03
2022-09-16T11:05:44.063Z,100566.50
2022-09-16T11:08:44.557Z,100566.91
2022-09-16T11:11:49.667Z,100568.78
2022-09-16T11:14:50.297Z,100574.63
2022-09-16T11:18:08.283Z,100576.47
2022-09-16T11:21:16.858Z,100579.59
2022-09-16T11:24:45.704Z,100578.34
2022-09-16T11:28:20.982Z,100586.69
2022-09-16T11:31:23.687Z,100592.03
2022-09-16T11:34:20.250Z,100597.44
2022-09-16T11:37:20.664Z,100608.25
2022-09-16T11:40:25.718Z,100605.78
2022-09-16T11:43:41.422Z,100606.59
2022-09-16T11:47:00.846Z,100617.81
2022-09-16T11:50:25.943Z,100618.59
2022-09-16T11:53:51.483Z,100618.59
2022-09-16T11:56:58.868Z,100623.59
2022-09-16T12:00:00.330Z,100630.44
2022-09-16T12:03:07.415Z,100629.81
2022-09-16T12:06:07.031Z,100632.41
2022-09-16T12:09:28.448Z,100646.56
2022-09-16T12:12:22.433Z,100639.09
2022-09-16T12:15:19.261Z,100644.75
2022-09-16T12:18:21.740Z,100643.63
2022-09-16T12:21:27.263Z,100644.69
2022-09-16T12:24:39.924Z,100647.78
2022-09-16T12:27:36.713Z,100650.69
2022-09-16T12:30:44.294Z,100650.25
2022-09-16T12:33:43.387Z,100658.34
2022-09-16T12:36:37.607Z,100653.59
2022-09-16T12:39:28.244Z,100649.22
2022-09-16T12:42:24.728Z,100655.25
2022-09-16T12:45:39.963Z,100657.72
2022-09-16T12:49:11.825Z,100665.19
2022-09-16T12:52:21.253Z,100667.50
2022-09-16T12:55:52.718Z,100671.06
2022-09-16T12:59:23.624Z,100670.28
2022-09-16T13:02:22.576Z,100670.69
2022-09-16T13:05:39.836Z,100671.72
2022-09-16T13:08:36.243Z,100673.19
2022-09-16T13:14:57.026Z,100676.47
2022-09-16T13:17:50.858Z,100681.41
2022-09-16T13:20:55.463Z,100679.56
2022-09-16T13:23:52.769Z,100687.66
2022-09-16T13:26:49.176Z,100683.06
2022-09-16T13:29:42.453Z,100684.09
2022-09-16T13:33:04.244Z,100689.91
2022-09-16T13:36:20.860Z,100688.88
2022-09-16T13:39:32.132Z,100690.94
2022-09-16T13:42:25.305Z,100688.22
2022-09-16T13:45:40.754Z,100681.41
2022-09-16T13:48:39.142Z,100681.38
2022-09-16T13:51:35.346Z,100682.00
2022-09-16T13:54:33.083Z,100682.19
2022-09-16T13:57:40.380Z,100683.88
2022-09-16T14:00:40.715Z,100674.72
2022-09-16T14:03:47.804Z,100680.09
2022-09-16T14:07:06.206Z,100678.84
2022-09-16T14:10:03.371Z,100677.09
2022-09-16T14:12:58.465Z,100677.44
2022-09-16T14:15:53.031Z,100678.09
2022-09-16T14:18:46.884Z,100672.03
2022-09-16T14:21:45.347Z,100669.97
2022-09-16T14:24:42.543Z,100667.94
2022-09-16T14:27:42.850Z,100661.25
2022-09-16T14:30:33.988Z,100664.97
2022-09-16T14:33:31.873Z,100659.97
2022-09-16T14:36:43.438Z,100659.16
2022-09-16T14:39:36.520Z,100654.16
2022-09-16T14:42:28.380Z,100657.66
2022-09-16T14:45:22.923Z,100641.69
2022-09-16T14:48:14.703Z,100642.94
2022-09-16T14:51:05.855Z,100641.44
2022-09-16T14:54:12.264Z,100646.06
2022-09-16T14:57:18.031Z,100637.94
2022-09-16T15:00:18.795Z,100642.94
2022-09-16T15:03:27.113Z,100632.13
2022-09-16T15:06:26.480Z,100621.75
2022-09-16T15:10:05.166Z,100624.03
2022-09-16T15:13:04.623Z,100617.72
2022-09-16T15:19:21.267Z,100626.63
2022-09-16T15:22:18.866Z,100626.66
2022-09-16T15:25:24.984Z,100621.66
2022-09-16T15:28:24.889Z,100614.56
2022-09-16T15:31:17.889Z,100614.97
2022-09-16T15:34:32.369Z,100611.88
2022-09-16T15:37:37.362Z,100611.22
2022-09-16T15:43:41.706Z,100599.66
2022-09-16T15:46:33.181Z,100598.38
2022-09-16T15:49:28.441Z,100600.44
2022-09-16T15:52:20.389Z,100601.06
2022-09-16T15:55:12.216Z,100599.59
2022-09-16T15:58:20.062Z,100596.31
2022-09-16T16:01:19.647Z,100588.59
2022-09-16T16:04:14.362Z,100587.94
2022-09-16T16:07:07.344Z,100589.59
2022-09-16T16:09:58.232Z,100580.06
2022-09-16T16:12:55.132Z,100576.47
2022-09-16T16:15:47.565Z,100570.47
2022-09-16T16:18:39.489Z,100571.94
2022-09-16T16:21:30.693Z,100562.16
2022-09-16T16:24:22.098Z,100567.56
2022-09-16T16:27:12.575Z,100566.53
2022-09-16T16:30:03.052Z,100562.16
2022-09-16T16:32:55.509Z,100562.56
2022-09-16T16:35:45.840Z,100561.72
2022-09-16T16:38:38.306Z,100557.97
2022-09-16T16:41:31.980Z,100552.16
2022-09-16T16:44:24.071Z,100555.47
2022-09-16T16:47:14.778Z,100546.91
2022-09-16T16:50:05.695Z,100550.63
2022-09-16T16:52:57.518Z,100540.84
2022-09-16T16:55:49.203Z,100537.13
2022-09-16T16:58:46.404Z,100534.44
2022-09-16T17:01:37.219Z,100528.38
2022-09-16T17:04:31.093Z,100529.16
2022-09-16T17:07:28.368Z,100523.38
2022-09-16T17:10:19.421Z,100522.75
2022-09-16T17:13:11.166Z,100524.13
2022-09-16T17:16:04.477Z,100527.00
2022-09-16T17:18:56.052Z,100519.06
2022-09-16T17:21:49.843Z,100519.91
2022-09-16T17:24:43.215Z,100508.09
2022-09-16T17:27:38.757Z,100508.66
2022-09-16T17:30:29.381Z,100523.19
2022-09-16T17:33:20.078Z,100523.63
2022-09-16T17:36:15.783Z,100530.22
2022-09-16T17:39:17.376Z,100528.41
2022-09-16T17:42:11.218Z,100520.69
2022-09-16T17:45:07.618Z,100519.66
2022-09-16T17:47:59.873Z,100526.28
2022-09-16T17:50:54.459Z,100525.84
2022-09-16T17:53:45.769Z,100528.94
2022-09-16T17:56:36.810Z,100534.06
2022-09-16T17:59:27.792Z,100527.81
2022-09-16T18:02:18.037Z,100534.63
2022-09-16T18:05:10.865Z,100541.22
2022-09-16T18:08:00.761Z,100546.41
2022-09-16T18:10:56.973Z,100537.03
2022-09-16T18:13:48.744Z,100542.50
2022-09-16T18:16:39.821Z,100535.56
2022-09-16T18:19:31.405Z,100531.84
2022-09-16T18:22:22.156Z,100532.22
2022-09-16T18:25:14.627Z,100535.53
2022-09-16T18:28:05.820Z,100533.31
2022-09-16T18:31:08.642Z,100533.38
2022-09-16T18:33:59.804Z,100531.72
2022-09-16T18:36:50.203Z,100529.59
2022-09-16T18:39:40.348Z,100533.50
2022-09-16T18:42:30.540Z,100528.03
2022-09-16T18:45:21.058Z,100533.59
2022-09-16T18:48:12.413Z,100536.50
2022-09-16T18:51:03.965Z,100533.16
2022-09-16T18:53:57.232Z,100532.31
2022-09-16T18:56:50.637Z,100523.59
2022-09-16T18:59:40.520Z,100531.03
2022-09-16T19:02:30.453Z,100534.31
2022-09-16T19:05:20.778Z,100537.19
2022-09-16T19:08:11.151Z,100538.22
2022-09-16T19:11:07.858Z,100531.16
2022-09-16T19:13:58.630Z,100535.03
2022-09-16T19:16:49.074Z,100537.06
2022-09-16T19:19:39.263Z,100549.06
2022-09-16T19:22:29.436Z,100556.88
2022-09-16T19:25:19.427Z,100547.78
2022-09-16T19:28:09.465Z,100554.19
2022-09-16T19:31:10.223Z,100551.13
2022-09-16T19:34:01.059Z,100553.53
2022-09-16T19:36:51.498Z,100551.88
2022-09-16T19:39:41.269Z,100552.03
2022-09-16T19:42:34.600Z,100546.84
2022-09-16T19:45:27.900Z,100546.84
2022-09-16T19:48:18.898Z,100555.59
2022-09-16T19:51:14.115Z,100553.91
2022-09-16T19:54:04.525Z,100554.94
2022-09-16T19:56:54.792Z,100553.28
2022-09-16T19:59:47.192Z,100553.63
2022-09-16T20:02:38.587Z,100560.69
2022-09-16T20:05:31.407Z,100550.94
2022-09-16T20:08:21.621Z,100555.03
2022-09-16T20:11:20.364Z,100553.38
2022-09-16T20:14:15.247Z,100557.72
2022-09-16T20:17:05.813Z,100565.81
2022-09-16T20:19:55.511Z,100563.13
2022-09-16T20:22:45.570Z,100557.72
2022-09-16T20:25:38.281Z,100564.13
2022-09-16T20:28:33.604Z,100562.84
2022-09-16T20:31:29.398Z,100567.19
2022-09-16T20:34:19.527Z,100571.94
2022-09-16T20:37:09.837Z,100571.09
2022-09-16T20:39:59.767Z,100564.41
2022-09-16T20:42:51.145Z,100570.63
2022-09-16T20:45:41.667Z,100570.63
2022-09-16T20:48:32.055Z,100571.81
2022-09-16T20:51:23.971Z,100574.72
2022-09-16T20:54:15.791Z,100576.75
2022-09-16T20:57:06.530Z,100584.84
2022-09-16T20:59:57.755Z,100586.88
2022-09-16T21:02:47.969Z,100590.41
2022-09-16T21:05:37.845Z,100587.53
2022-09-16T21:08:33.258Z,100588.56
2022-09-16T21:11:24.638Z,100583.16
2022-09-16T21:14:17.482Z,100583.25
2022-09-16T21:17:07.296Z,100597.38
2022-09-16T21:19:57.105Z,100589.56
2022-09-16T21:22:47.936Z,100600.72
2022-09-16T21:25:39.205Z,100590.75
2022-09-16T21:28:29.334Z,100595.31
2022-09-16T21:31:19.982Z,100591.25
2022-09-16T21:34:16.985Z,100582.31
2022-09-16T21:37:07.570Z,100584.19
2022-09-16T21:39:57.762Z,100581.28
2022-09-16T21:42:48.310Z,100591.63
2022-09-16T21:45:45.963Z,100590.97
2022-09-16T21:48:36.619Z,100593.28
2022-09-16T21:51:27.162Z,100591.63
2022-09-16T21:54:20.575Z,100600.72
2022-09-16T21:57:10.811Z,100599.69
2022-09-16T22:00:00.841Z,100599.03
2022-09-16T22:02:58.582Z,100605.25
2022-09-16T22:05:48.637Z,100605.81
2022-09-16T22:08:39.047Z,100607.16
2022-09-16T22:11:32.542Z,100608.50
2022-09-16T22:14:22.970Z,100610.19
2022-09-16T22:17:13.002Z,100611.84
2022-09-16T22:20:03.051Z,100608.13
2022-09-16T22:22:53.219Z,100617.59
2022-09-16T22:25:43.727Z,100615.56
2022-09-16T22:28:33.463Z,100630.06
2022-09-16T22:31:31.930Z,100631.06
2022-09-16T22:34:22.721Z,100638.13
2022-09-16T22:37:13.417Z,100645.19
2022-09-16T22:40:03.558Z,100649.56
2022-09-16T22:42:53.850Z,100653.63
2022-09-16T22:45:44.228Z,100655.97
2022-09-16T22:48:34.238Z,100664.03
2022-09-16T22:51:25.711Z,100674.81
2022-09-16T22:54:17.403Z,100669.41
2022-09-16T22:57:07.295Z,100678.31
2022-09-16T22:59:57.023Z,100677.31
2022-09-16T23:02:47.463Z,100684.38
2022-09-16T23:05:37.373Z,100690.97
2022-09-16T23:08:27.980Z,100703.88
2022-09-16T23:11:21.318Z,100704.53
2022-09-16T23:14:15.848Z,100698.47
2022-09-16T23:17:05.881Z,100701.84
2022-09-16T23:19:56.769Z,100706.75
2022-09-16T23:22:47.451Z,100705.09
2022-09-16T23:25:37.683Z,100715.84
2022-09-16T23:28:27.916Z,100708.78
2022-09-16T23:31:19.487Z,100710.78
2022-09-16T23:34:13.607Z,100710.56
2022-09-16T23:37:05.955Z,100714.28
2022-09-16T23:39:56.541Z,100727.94
2022-09-16T23:42:47.854Z,100724.22
2022-09-16T23:45:39.998Z,100725.91
2022-09-16T23:48:30.656Z,100726.28
2022-09-16T23:51:27.951Z,100736.69
2022-09-16T23:54:19.108Z,100739.66
2022-09-16T23:57:09.868Z,100739.31
